sensor_id;sensor_type;location;lat;lon;timestamp;pressure;altitude;pressure_sealevel;temperature;humidity
43553;BME280;29153;42.696;23.218;2023-05-22T00:01:37;94229.73;;;10.26;100.00
43553;BME280;29153;42.696;23.218;2023-05-22T00:04:06;94229.44;;;10.28;100.00
43553;BME280;29153;42.696;23.218;2023-05-22T00:06:34;94221.31;;;10.22;100.00
43553;BME280;29153;42.696;23.218;2023-05-22T00:09:02;94228.95;;;10.26;100.00
43553;BME280;29153;42.696;23.218;2023-05-22T00:11:30;94229.21;;;10.27;100.00
43553;BME280;29153;42.696;23.218;2023-05-22T00:13:59;94233.11;;;10.32;100.00
43553;BME280;29153;42.696;23.218;2023-05-22T00:16:26;94226.98;;;10.36;100.00
43553;BME280;29153;42.696;23.218;2023-05-22T00:18:54;94225.05;;;10.44;100.00
43553;BME280;29153;42.696;23.218;2023-05-22T00:21:23;94226.07;;;10.48;100.00
43553;BME280;29153;42.696;23.218;2023-05-22T00:23:53;94227.96;;;10.45;100.00
43553;BME280;29153;42.696;23.218;2023-05-22T00:26:21;94228.72;;;10.48;100.00
43553;BME280;29153;42.696;23.218;2023-05-22T00:28:49;94231.31;;;10.56;100.00
43553;BME280;29153;42.696;23.218;2023-05-22T00:31:17;94235.03;;;10.53;100.00
43553;BME280;29153;42.696;23.218;2023-05-22T00:33:44;94231.31;;;10.56;100.00
43553;BME280;29153;42.696;23.218;2023-05-22T00:36:12;94237.67;;;10.55;100.00
43553;BME280;29153;42.696;23.218;2023-05-22T00:38:39;94238.95;;;10.60;100.00
43553;BME280;29153;42.696;23.218;2023-05-22T00:41:07;94235.22;;;10.61;100.00
43553;BME280;29153;42.696;23.218;2023-05-22T00:43:34;94244.20;;;10.65;100.00
43553;BME280;29153;42.696;23.218;2023-05-22T00:46:02;94237.02;;;10.68;100.00
43553;BME280;29153;42.696;23.218;2023-05-22T00:48:30;94236.19;;;10.70;100.00
43553;BME280;29153;42.696;23.218;2023-05-22T00:50:58;94238.56;;;10.72;100.00
43553;BME280;29153;42.696;23.218;2023-05-22T00:53:27;94236.50;;;10.66;100.00
43553;BME280;29153;42.696;23.218;2023-05-22T00:55:57;94237.86;;;10.61;100.00
43553;BME280;29153;42.696;23.218;2023-05-22T00:58:25;94236.09;;;10.54;100.00
43553;BME280;29153;42.696;23.218;2023-05-22T01:00:53;94237.11;;;10.58;100.00
43553;BME280;29153;42.696;23.218;2023-05-22T01:03:21;94237.41;;;10.54;100.00
43553;BME280;29153;42.696;23.218;2023-05-22T01:05:51;94235.11;;;10.47;100.00
43553;BME280;29153;42.696;23.218;2023-05-22T01:08:19;94234.84;;;10.46;100.00
43553;BME280;29153;42.696;23.218;2023-05-22T01:10:51;94228.23;;;10.44;100.00
43553;BME280;29153;42.696;23.218;2023-05-22T01:13:33;94230.87;;;10.44;100.00
43553;BME280;29153;42.696;23.218;2023-05-22T01:16:28;94231.48;;;10.36;100.00
43553;BME280;29153;42.696;23.218;2023-05-22T01:19:15;94225.09;;;10.42;100.00
43553;BME280;29153;42.696;23.218;2023-05-22T01:21:54;94230.98;;;10.34;100.00
43553;BME280;29153;42.696;23.218;2023-05-22T01:24:49;94229.21;;;10.27;100.00
43553;BME280;29153;42.696;23.218;2023-05-22T01:27:33;94228.95;;;10.26;100.00
43553;BME280;29153;42.696;23.218;2023-05-22T01:30:16;94228.64;;;10.30;100.00
43553;BME280;29153;42.696;23.218;2023-05-22T01:32:41;94225.81;;;10.19;100.00
43553;BME280;29153;42.696;23.218;2023-05-22T01:35:10;94227.96;;;10.17;100.00
43553;BME280;29153;42.696;23.218;2023-05-22T01:37:40;94220.03;;;10.12;100.00
43553;BME280;29153;42.696;23.218;2023-05-22T01:40:09;94220.30;;;10.10;100.00
43553;BME280;29153;42.696;23.218;2023-05-22T01:42:38;94216.16;;;9.99;100.00
43553;BME280;29153;42.696;23.218;2023-05-22T01:45:08;94219.59;;;9.99;100.00
43553;BME280;29153;42.696;23.218;2023-05-22T01:47:37;94215.93;;;9.93;100.00
43553;BME280;29153;42.696;23.218;2023-05-22T01:50:05;94213.09;;;9.84;100.00
43553;BME280;29153;42.696;23.218;2023-05-22T01:55:41;94218.64;;;9.85;100.00
43553;BME280;29153;42.696;23.218;2023-05-22T01:58:30;94220.29;;;9.76;100.00
43553;BME280;29153;42.696;23.218;2023-05-22T02:00:57;94222.73;;;9.70;100.00
43553;BME280;29153;42.696;23.218;2023-05-22T02:03:29;94214.00;;;9.70;100.00
43553;BME280;29153;42.696;23.218;2023-05-22T02:05:58;94218.77;;;9.68;100.00
43553;BME280;29153;42.696;23.218;2023-05-22T02:08:27;94216.17;;;9.60;100.00
43553;BME280;29153;42.696;23.218;2023-05-22T02:10:55;94216.73;;;9.57;100.00
43553;BME280;29153;42.696;23.218;2023-05-22T02:13:24;94217.78;;;9.56;100.00
43553;BME280;29153;42.696;23.218;2023-05-22T02:15:52;94220.75;;;9.49;100.00
43553;BME280;29153;42.696;23.218;2023-05-22T02:18:19;94221.04;;;9.45;100.00
43553;BME280;29153;42.696;23.218;2023-05-22T02:20:47;94216.56;;;9.38;100.00
43553;BME280;29153;42.696;23.218;2023-05-22T02:23:15;94226.59;;;9.44;100.00
43553;BME280;29153;42.696;23.218;2023-05-22T02:25:42;94196.31;;;9.24;100.00
43553;BME280;29153;42.696;23.218;2023-05-22T02:28:10;94219.00;;;9.32;100.00
43553;BME280;29153;42.696;23.218;2023-05-22T02:30:37;94222.97;;;9.25;100.00
43553;BME280;29153;42.696;23.218;2023-05-22T02:33:05;94219.80;;;9.25;100.00
43553;BME280;29153;42.696;23.218;2023-05-22T02:35:34;94225.91;;;9.23;100.00
43553;BME280;29153;42.696;23.218;2023-05-22T02:38:02;94223.53;;;9.22;100.00
43553;BME280;29153;42.696;23.218;2023-05-22T02:40:29;94222.76;;;9.19;100.00
43553;BME280;29153;42.696;23.218;2023-05-22T02:42:57;94225.15;;;9.12;100.00
43553;BME280;29153;42.696;23.218;2023-05-22T02:45:24;94218.02;;;9.13;100.00
43553;BME280;29153;42.696;23.218;2023-05-22T02:47:52;94218.02;;;9.16;100.00
43553;BME280;29153;42.696;23.218;2023-05-22T02:50:19;94223.55;;;9.17;100.00
43553;BME280;29153;42.696;23.218;2023-05-22T02:52:47;94214.58;;;9.12;100.00
43553;BME280;29153;42.696;23.218;2023-05-22T02:55:15;94226.48;;;9.15;100.00
43553;BME280;29153;42.696;23.218;2023-05-22T02:57:43;94217.48;;;9.13;100.00
43553;BME280;29153;42.696;23.218;2023-05-22T03:00:11;94218.31;;;9.04;100.00
43553;BME280;29153;42.696;23.218;2023-05-22T03:02:38;94210.13;;;9.05;100.00
43553;BME280;29153;42.696;23.218;2023-05-22T03:05:06;94206.94;;;9.08;100.00
43553;BME280;29153;42.696;23.218;2023-05-22T03:07:34;94221.73;;;9.09;100.00
43553;BME280;29153;42.696;23.218;2023-05-22T03:10:02;94218.55;;;9.15;100.00
43553;BME280;29153;42.696;23.218;2023-05-22T03:12:30;94216.95;;;9.11;100.00
43553;BME280;29153;42.696;23.218;2023-05-22T03:14:57;94214.61;;;9.10;100.00
43553;BME280;29153;42.696;23.218;2023-05-22T03:17:25;94230.17;;;9.11;100.00
43553;BME280;29153;42.696;23.218;2023-05-22T03:19:52;94220.59;;;9.26;100.00
43553;BME280;29153;42.696;23.218;2023-05-22T03:22:20;94219.25;;;9.31;100.00
43553;BME280;29153;42.696;23.218;2023-05-22T03:24:48;94221.88;;;9.33;100.00
43553;BME280;29153;42.696;23.218;2023-05-22T03:27:16;94219.97;;;9.41;100.00
43553;BME280;29153;42.696;23.218;2023-05-22T03:29:43;94221.52;;;9.50;100.00
43553;BME280;29153;42.696;23.218;2023-05-22T03:32:11;94219.66;;;9.50;100.00
43553;BME280;29153;42.696;23.218;2023-05-22T03:34:38;94214.88;;;9.57;100.00
43553;BME280;29153;42.696;23.218;2023-05-22T03:37:06;94211.67;;;9.60;100.00
43553;BME280;29153;42.696;23.218;2023-05-22T03:39:35;94214.00;;;9.70;100.00
43553;BME280;29153;42.696;23.218;2023-05-22T03:42:04;94212.09;;;9.78;100.00
43553;BME280;29153;42.696;23.218;2023-05-22T03:44:32;94219.17;;;9.85;100.00
43553;BME280;29153;42.696;23.218;2023-05-22T03:47:00;94219.38;;;9.96;100.00
43553;BME280;29153;42.696;23.218;2023-05-22T03:49:27;94222.25;;;9.99;100.00
43553;BME280;29153;42.696;23.218;2023-05-22T03:51:54;94219.04;;;10.02;100.00
43553;BME280;29153;42.696;23.218;2023-05-22T03:54:22;94216.36;;;10.08;100.00
43553;BME280;29153;42.696;23.218;2023-05-22T03:56:50;94224.75;;;10.20;100.00
43553;BME280;29153;42.696;23.218;2023-05-22T03:59:17;94219.88;;;10.32;100.00
43553;BME280;29153;42.696;23.218;2023-05-22T04:01:45;94229.86;;;10.40;100.00
43553;BME280;29153;42.696;23.218;2023-05-22T04:04:14;94228.00;;;10.40;100.00
43553;BME280;29153;42.696;23.218;2023-05-22T04:06:41;94227.95;;;10.48;100.00
43553;BME280;29153;42.696;23.218;2023-05-22T04:09:10;94230.52;;;10.56;100.00
43553;BME280;29153;42.696;23.218;2023-05-22T04:11:38;94228.86;;;10.62;100.00
43553;BME280;29153;42.696;23.218;2023-05-22T04:14:05;94221.39;;;10.69;100.00
43553;BME280;29153;42.696;23.218;2023-05-22T04:16:33;94219.18;;;10.76;100.00
43553;BME280;29153;42.696;23.218;2023-05-22T04:19:00;94220.45;;;10.81;100.00
43553;BME280;29153;42.696;23.218;2023-05-22T04:21:31;94221.11;;;10.94;100.00
43553;BME280;29153;42.696;23.218;2023-05-22T04:24:02;94222.06;;;11.04;100.00
43553;BME280;29153;42.696;23.218;2023-05-22T04:26:34;94226.73;;;11.12;100.00
43553;BME280;29153;42.696;23.218;2023-05-22T04:29:03;94225.04;;;11.21;100.00
43553;BME280;29153;42.696;23.218;2023-05-22T04:31:32;94224.72;;;11.25;100.00
43553;BME280;29153;42.696;23.218;2023-05-22T04:34:00;94222.83;;;11.25;100.00
43553;BME280;29153;42.696;23.218;2023-05-22T04:36:27;94223.30;;;11.32;100.00
43553;BME280;29153;42.696;23.218;2023-05-22T04:38:56;94226.38;;;11.39;100.00
43553;BME280;29153;42.696;23.218;2023-05-22T04:41:25;94228.16;;;11.47;100.00
43553;BME280;29153;42.696;23.218;2023-05-22T04:43:53;94237.27;;;11.59;100.00
43553;BME280;29153;42.696;23.218;2023-05-22T04:46:20;94239.21;;;11.72;100.00
43553;BME280;29153;42.696;23.218;2023-05-22T04:48:48;94240.61;;;11.86;100.00
43553;BME280;29153;42.696;23.218;2023-05-22T04:51:16;94238.49;;;12.04;100.00
43553;BME280;29153;42.696;23.218;2023-05-22T04:53:43;94234.23;;;12.22;100.00
43553;BME280;29153;42.696;23.218;2023-05-22T04:56:11;94235.73;;;12.44;100.00
43553;BME280;29153;42.696;23.218;2023-05-22T04:58:39;94239.62;;;12.65;100.00
43553;BME280;29153;42.696;23.218;2023-05-22T05:01:06;94241.30;;;12.89;100.00
43553;BME280;29153;42.696;23.218;2023-05-22T05:03:37;94232.39;;;13.12;100.00
43553;BME280;29153;42.696;23.218;2023-05-22T05:06:05;94233.19;;;13.64;100.00
43553;BME280;29153;42.696;23.218;2023-05-22T05:08:33;94239.77;;;13.67;100.00
43553;BME280;29153;42.696;23.218;2023-05-22T05:11:01;94242.84;;;13.85;100.00
43553;BME280;29153;42.696;23.218;2023-05-22T05:13:28;94245.33;;;14.04;100.00
43553;BME280;29153;42.696;23.218;2023-05-22T05:15:57;94245.33;;;14.04;100.00
43553;BME280;29153;42.696;23.218;2023-05-22T05:18:26;94244.81;;;14.16;99.95
43553;BME280;29153;42.696;23.218;2023-05-22T05:20:53;94239.05;;;14.22;99.74
43553;BME280;29153;42.696;23.218;2023-05-22T05:23:21;94246.26;;;14.22;96.38
43553;BME280;29153;42.696;23.218;2023-05-22T05:25:48;94253.52;;;14.30;95.67
43553;BME280;29153;42.696;23.218;2023-05-22T05:28:16;94253.33;;;14.40;94.61
43553;BME280;29153;42.696;23.218;2023-05-22T05:30:43;94250.05;;;14.43;93.69
43553;BME280;29153;42.696;23.218;2023-05-22T05:33:10;94255.68;;;14.52;93.24
43553;BME280;29153;42.696;23.218;2023-05-22T05:35:38;94253.02;;;14.52;91.71
43553;BME280;29153;42.696;23.218;2023-05-22T05:38:05;94256.63;;;14.68;93.02
43553;BME280;29153;42.696;23.218;2023-05-22T05:40:33;94248.50;;;14.73;92.35
43553;BME280;29153;42.696;23.218;2023-05-22T05:43:00;94256.55;;;14.81;89.46
43553;BME280;29153;42.696;23.218;2023-05-22T05:45:28;94257.13;;;14.89;88.88
43553;BME280;29153;42.696;23.218;2023-05-22T05:47:55;94256.97;;;14.86;90.27
43553;BME280;29153;42.696;23.218;2023-05-22T05:50:23;94255.84;;;14.98;89.83
43553;BME280;29153;42.696;23.218;2023-05-22T05:52:50;94261.22;;;15.07;88.39
43553;BME280;29153;42.696;23.218;2023-05-22T05:55:18;94261.34;;;15.13;89.36
43553;BME280;29153;42.696;23.218;2023-05-22T05:57:45;94260.50;;;15.23;90.08
43553;BME280;29153;42.696;23.218;2023-05-22T06:00:13;94257.86;;;15.32;87.75
43553;BME280;29153;42.696;23.218;2023-05-22T06:02:41;94262.24;;;15.28;86.70
43553;BME280;29153;42.696;23.218;2023-05-22T06:05:09;94273.33;;;15.32;83.63
43553;BME280;29153;42.696;23.218;2023-05-22T06:07:36;94273.33;;;15.32;83.63
43553;BME280;29153;42.696;23.218;2023-05-22T06:10:08;94263.77;;;15.31;84.15
43553;BME280;29153;42.696;23.218;2023-05-22T06:12:36;94255.77;;;15.51;83.73
43553;BME280;29153;42.696;23.218;2023-05-22T06:15:07;94265.84;;;15.63;85.01
43553;BME280;29153;42.696;23.218;2023-05-22T06:17:35;94267.52;;;15.70;83.68
43553;BME280;29153;42.696;23.218;2023-05-22T06:20:06;94268.23;;;15.73;83.93
43553;BME280;29153;42.696;23.218;2023-05-22T06:22:34;94268.56;;;15.88;85.20
43553;BME280;29153;42.696;23.218;2023-05-22T06:25:02;94256.80;;;15.98;83.96
43553;BME280;29153;42.696;23.218;2023-05-22T06:27:29;94274.17;;;16.07;79.15
43553;BME280;29153;42.696;23.218;2023-05-22T06:29:57;94272.34;;;16.13;77.92
43553;BME280;29153;42.696;23.218;2023-05-22T06:32:25;94270.08;;;16.26;79.47
43553;BME280;29153;42.696;23.218;2023-05-22T06:34:53;94272.59;;;16.40;78.77
43553;BME280;29153;42.696;23.218;2023-05-22T06:37:20;94265.27;;;16.52;81.07
43553;BME280;29153;42.696;23.218;2023-05-22T06:39:47;94262.55;;;16.63;82.71
43553;BME280;29153;42.696;23.218;2023-05-22T06:42:15;94260.70;;;16.78;78.80
43553;BME280;29153;42.696;23.218;2023-05-22T06:44:42;94270.26;;;16.96;78.03
43553;BME280;29153;42.696;23.218;2023-05-22T06:47:10;94275.30;;;16.98;76.09
43553;BME280;29153;42.696;23.218;2023-05-22T06:49:38;94274.02;;;17.04;75.71
43553;BME280;29153;42.696;23.218;2023-05-22T06:52:06;94267.05;;;17.20;77.63
43553;BME280;29153;42.696;23.218;2023-05-22T06:54:33;94278.42;;;17.46;73.22
43553;BME280;29153;42.696;23.218;2023-05-22T06:57:01;94275.63;;;17.57;74.10
43553;BME280;29153;42.696;23.218;2023-05-22T06:59:29;94269.13;;;17.82;74.99
43553;BME280;29153;42.696;23.218;2023-05-22T07:01:57;94281.64;;;17.98;72.82
43553;BME280;29153;42.696;23.218;2023-05-22T07:04:25;94284.61;;;18.05;71.01
43553;BME280;29153;42.696;23.218;2023-05-22T07:06:52;94275.01;;;18.10;74.34
43553;BME280;29153;42.696;23.218;2023-05-22T07:09:20;94283.42;;;18.15;69.81
43553;BME280;29153;42.696;23.218;2023-05-22T07:11:47;94286.99;;;18.13;69.61
43553;BME280;29153;42.696;23.218;2023-05-22T07:14:15;94279.82;;;18.32;72.22
43553;BME280;29153;42.696;23.218;2023-05-22T07:16:43;94272.41;;;18.43;74.06
43553;BME280;29153;42.696;23.218;2023-05-22T07:19:11;94275.88;;;18.44;71.26
43553;BME280;29153;42.696;23.218;2023-05-22T07:21:38;94281.33;;;18.56;71.80
43553;BME280;29153;42.696;23.218;2023-05-22T07:24:06;94271.98;;;18.68;73.52
43553;BME280;29153;42.696;23.218;2023-05-22T07:26:35;94280.62;;;18.74;66.82
43553;BME280;29153;42.696;23.218;2023-05-22T07:29:03;94253.59;;;18.58;66.58
43553;BME280;29153;42.696;23.218;2023-05-22T07:31:31;94284.09;;;18.80;64.34
43553;BME280;29153;42.696;23.218;2023-05-22T07:33:59;94281.62;;;19.14;63.29
43553;BME280;29153;42.696;23.218;2023-05-22T07:36:27;94280.19;;;19.17;61.44
43553;BME280;29153;42.696;23.218;2023-05-22T07:38:54;94277.40;;;19.31;61.10
43553;BME280;29153;42.696;23.218;2023-05-22T07:41:22;94277.69;;;19.75;60.36
43553;BME280;29153;42.696;23.218;2023-05-22T07:43:49;94275.09;;;19.90;56.54
43553;BME280;29153;42.696;23.218;2023-05-22T07:46:17;94276.02;;;19.76;55.19
43553;BME280;29153;42.696;23.218;2023-05-22T07:48:45;94281.61;;;19.71;54.52
43553;BME280;29153;42.696;23.218;2023-05-22T07:51:12;94276.79;;;19.89;55.73
43553;BME280;29153;42.696;23.218;2023-05-22T07:53:40;94251.69;;;19.97;59.15
43553;BME280;29153;42.696;23.218;2023-05-22T07:56:07;94278.42;;;20.30;56.56
43553;BME280;29153;42.696;23.218;2023-05-22T07:58:35;94278.33;;;20.66;52.47
43553;BME280;29153;42.696;23.218;2023-05-22T08:01:02;94266.66;;;21.12;53.27
43553;BME280;29153;42.696;23.218;2023-05-22T08:03:30;94259.94;;;21.33;57.27
43553;BME280;29153;42.696;23.218;2023-05-22T08:05:58;94264.70;;;21.71;57.11
43553;BME280;29153;42.696;23.218;2023-05-22T08:08:26;94266.99;;;21.79;51.85
43553;BME280;29153;42.696;23.218;2023-05-22T08:10:53;94269.50;;;21.94;54.05
43553;BME280;29153;42.696;23.218;2023-05-22T08:13:21;94275.19;;;21.98;48.91
43553;BME280;29153;42.696;23.218;2023-05-22T08:15:49;94272.45;;;22.14;49.39
43553;BME280;29153;42.696;23.218;2023-05-22T08:18:16;94260.77;;;22.35;55.23
43553;BME280;29153;42.696;23.218;2023-05-22T08:20:44;94262.16;;;22.74;51.00
43553;BME280;29153;42.696;23.218;2023-05-22T08:23:12;94263.51;;;22.93;49.57
43553;BME280;29153;42.696;23.218;2023-05-22T08:25:40;94267.87;;;23.10;48.81
43553;BME280;29153;42.696;23.218;2023-05-22T08:28:07;94265.87;;;23.27;46.60
43553;BME280;29153;42.696;23.218;2023-05-22T08:30:35;94259.97;;;23.53;45.43
43553;BME280;29153;42.696;23.218;2023-05-22T08:33:03;94265.53;;;23.74;44.26
43553;BME280;29153;42.696;23.218;2023-05-22T08:35:30;94259.82;;;23.79;49.47
43553;BME280;29153;42.696;23.218;2023-05-22T08:37:58;94256.38;;;23.82;44.24
43553;BME280;29153;42.696;23.218;2023-05-22T08:40:31;94251.63;;;23.75;46.06
43553;BME280;29153;42.696;23.218;2023-05-22T08:42:56;94263.30;;;23.24;45.77
43553;BME280;29153;42.696;23.218;2023-05-22T08:45:23;94254.12;;;22.77;47.54
43553;BME280;29153;42.696;23.218;2023-05-22T08:47:52;94254.46;;;22.66;48.05
43553;BME280;29153;42.696;23.218;2023-05-22T08:50:21;94250.11;;;22.52;46.92
43553;BME280;29153;42.696;23.218;2023-05-22T08:52:51;94250.64;;;22.77;48.22
43553;BME280;29153;42.696;23.218;2023-05-22T08:55:20;94240.00;;;23.06;50.82
43553;BME280;29153;42.696;23.218;2023-05-22T08:57:49;94250.39;;;23.14;43.26
43553;BME280;29153;42.696;23.218;2023-05-22T09:00:18;94250.80;;;23.16;44.33
43553;BME280;29153;42.696;23.218;2023-05-22T09:02:46;94250.73;;;22.26;39.67
43553;BME280;29153;42.696;23.218;2023-05-22T09:05:13;94244.16;;;22.33;43.73
43553;BME280;29153;42.696;23.218;2023-05-22T09:07:43;94243.16;;;22.41;44.12
43553;BME280;29153;42.696;23.218;2023-05-22T09:10:11;94237.91;;;22.29;43.93
43553;BME280;29153;42.696;23.218;2023-05-22T09:12:58;94233.98;;;22.65;44.78
43553;BME280;29153;42.696;23.218;2023-05-22T09:15:10;94236.05;;;22.91;41.86
43553;BME280;29153;42.696;23.218;2023-05-22T09:17:39;94242.00;;;23.32;41.52
43553;BME280;29153;42.696;23.218;2023-05-22T09:20:07;94214.31;;;23.16;41.43
43553;BME280;29153;42.696;23.218;2023-05-22T09:22:38;94236.03;;;23.10;41.00
43553;BME280;29153;42.696;23.218;2023-05-22T09:25:06;94231.33;;;23.39;41.92
43553;BME280;29153;42.696;23.218;2023-05-22T09:27:33;94223.05;;;23.19;42.29
43553;BME280;29153;42.696;23.218;2023-05-22T09:30:00;94226.20;;;22.89;48.19
43553;BME280;29153;42.696;23.218;2023-05-22T09:32:31;94231.65;;;22.44;43.17
43553;BME280;29153;42.696;23.218;2023-05-22T09:35:02;94228.28;;;22.03;43.74
43553;BME280;29153;42.696;23.218;2023-05-22T09:37:34;94238.86;;;21.86;45.45
43553;BME280;29153;42.696;23.218;2023-05-22T09:40:06;94237.92;;;21.63;44.59
43553;BME280;29153;42.696;23.218;2023-05-22T09:42:35;94231.74;;;21.62;44.26
43553;BME280;29153;42.696;23.218;2023-05-22T09:45:07;94234.18;;;21.67;45.21
43553;BME280;29153;42.696;23.218;2023-05-22T09:47:34;94239.53;;;21.58;44.83
43553;BME280;29153;42.696;23.218;2023-05-22T09:50:03;94231.81;;;21.56;52.62
43553;BME280;29153;42.696;23.218;2023-05-22T09:52:36;94236.15;;;22.02;48.32
43553;BME280;29153;42.696;23.218;2023-05-22T09:55:05;94240.14;;;22.17;44.94
43553;BME280;29153;42.696;23.218;2023-05-22T09:57:42;94229.70;;;22.06;45.26
43553;BME280;29153;42.696;23.218;2023-05-22T10:00:11;94224.33;;;22.35;46.22
43553;BME280;29153;42.696;23.218;2023-05-22T10:02:46;94224.05;;;22.40;47.63
43553;BME280;29153;42.696;23.218;2023-05-22T10:05:14;94226.81;;;22.44;46.99
43553;BME280;29153;42.696;23.218;2023-05-22T10:07:50;94227.41;;;22.08;47.85
43553;BME280;29153;42.696;23.218;2023-05-22T10:10:17;94225.13;;;22.45;48.52
43553;BME280;29153;42.696;23.218;2023-05-22T10:12:56;94226.46;;;22.36;49.67
43553;BME280;29153;42.696;23.218;2023-05-22T10:15:26;94231.03;;;21.91;44.12
43553;BME280;29153;42.696;23.218;2023-05-22T10:17:53;94232.34;;;21.71;45.29
43553;BME280;29153;42.696;23.218;2023-05-22T10:20:20;94236.91;;;21.77;46.52
43553;BME280;29153;42.696;23.218;2023-05-22T10:22:48;94228.51;;;21.47;48.24
43553;BME280;29153;42.696;23.218;2023-05-22T10:25:16;94232.23;;;21.58;51.59
43553;BME280;29153;42.696;23.218;2023-05-22T10:27:44;94231.33;;;21.60;49.00
43553;BME280;29153;42.696;23.218;2023-05-22T10:30:20;94226.23;;;21.65;51.86
43553;BME280;29153;42.696;23.218;2023-05-22T10:33:37;94236.63;;;21.41;49.55
43553;BME280;29153;42.696;23.218;2023-05-22T10:35:49;94235.14;;;21.12;49.44
43553;BME280;29153;42.696;23.218;2023-05-22T10:41:25;94228.16;;;21.33;49.62
43553;BME280;29153;42.696;23.218;2023-05-22T10:43:55;94227.23;;;21.19;50.47
43553;BME280;29153;42.696;23.218;2023-05-22T10:46:23;94225.80;;;21.10;51.75
43553;BME280;29153;42.696;23.218;2023-05-22T10:48:52;94228.26;;;20.93;52.48
43553;BME280;29153;42.696;23.218;2023-05-22T10:51:21;94228.09;;;20.58;53.89
43553;BME280;29153;42.696;23.218;2023-05-22T10:54:02;94234.08;;;20.06;53.99
43553;BME280;29153;42.696;23.218;2023-05-22T10:56:21;94243.05;;;19.85;56.51
43553;BME280;29153;42.696;23.218;2023-05-22T10:58:56;94252.70;;;19.74;58.18
43553;BME280;29153;42.696;23.218;2023-05-22T11:01:25;94257.52;;;19.57;63.86
43553;BME280;29153;42.696;23.218;2023-05-22T11:06:45;94251.92;;;18.92;71.36
43553;BME280;29153;42.696;23.218;2023-05-22T11:09:18;94234.24;;;18.85;75.21
43553;BME280;29153;42.696;23.218;2023-05-22T11:14:36;94215.45;;;18.85;80.63
43553;BME280;29153;42.696;23.218;2023-05-22T11:17:05;94219.13;;;18.81;81.51
43553;BME280;29153;42.696;23.218;2023-05-22T11:19:33;94217.91;;;18.78;82.44
43553;BME280;29153;42.696;23.218;2023-05-22T11:22:01;94219.07;;;19.14;86.45
43553;BME280;29153;42.696;23.218;2023-05-22T11:24:32;94217.78;;;19.44;86.22
43553;BME280;29153;42.696;23.218;2023-05-22T11:27:02;94214.64;;;19.66;83.83
43553;BME280;29153;42.696;23.218;2023-05-22T11:29:30;94215.75;;;19.65;81.07
43553;BME280;29153;42.696;23.218;2023-05-22T11:31:58;94208.89;;;19.98;79.96
43553;BME280;29153;42.696;23.218;2023-05-22T11:34:26;94203.38;;;20.00;77.63
43553;BME280;29153;42.696;23.218;2023-05-22T11:36:58;94204.07;;;19.85;75.05
43553;BME280;29153;42.696;23.218;2023-05-22T11:39:26;94207.41;;;20.07;75.56
43553;BME280;29153;42.696;23.218;2023-05-22T11:41:53;94217.08;;;19.77;72.69
43553;BME280;29153;42.696;23.218;2023-05-22T11:44:21;94218.67;;;19.48;72.75
43553;BME280;29153;42.696;23.218;2023-05-22T11:46:48;94231.71;;;19.13;73.28
43553;BME280;29153;42.696;23.218;2023-05-22T11:49:16;94259.91;;;18.68;75.73
43553;BME280;29153;42.696;23.218;2023-05-22T11:51:47;94262.36;;;18.67;80.31
43553;BME280;29153;42.696;23.218;2023-05-22T11:54:16;94270.30;;;18.49;78.72
43553;BME280;29153;42.696;23.218;2023-05-22T11:56:44;94283.30;;;18.32;81.67
43553;BME280;29153;42.696;23.218;2023-05-22T11:59:11;94283.50;;;17.92;83.98
43553;BME280;29153;42.696;23.218;2023-05-22T12:01:39;94282.81;;;17.51;86.70
43553;BME280;29153;42.696;23.218;2023-05-22T12:04:06;94285.22;;;16.97;88.73
43553;BME280;29153;42.696;23.218;2023-05-22T12:06:34;94291.31;;;16.74;93.96
43553;BME280;29153;42.696;23.218;2023-05-22T12:09:01;94283.38;;;16.46;97.50
43553;BME280;29153;42.696;23.218;2023-05-22T12:11:33;94285.42;;;16.40;100.00
43553;BME280;29153;42.696;23.218;2023-05-22T12:14:01;94281.10;;;16.33;100.00
43553;BME280;29153;42.696;23.218;2023-05-22T12:16:33;94282.98;;;16.42;100.00
43553;BME280;29153;42.696;23.218;2023-05-22T12:19:08;94278.09;;;16.44;100.00
43553;BME280;29153;42.696;23.218;2023-05-22T12:21:37;94278.18;;;16.50;100.00
43553;BME280;29153;42.696;23.218;2023-05-22T12:24:07;94270.41;;;16.42;98.15
43553;BME280;29153;42.696;23.218;2023-05-22T12:26:35;94270.55;;;16.54;100.00
43553;BME280;29153;42.696;23.218;2023-05-22T12:29:03;94256.17;;;16.61;100.00
43553;BME280;29153;42.696;23.218;2023-05-22T12:31:35;94251.73;;;16.74;100.00
43553;BME280;29153;42.696;23.218;2023-05-22T12:34:05;94252.89;;;16.88;100.00
43553;BME280;29153;42.696;23.218;2023-05-22T12:36:37;94255.92;;;17.01;100.00
43553;BME280;29153;42.696;23.218;2023-05-22T12:39:08;94244.61;;;17.18;100.00
43553;BME280;29153;42.696;23.218;2023-05-22T12:41:37;94250.38;;;17.29;98.32
43553;BME280;29153;42.696;23.218;2023-05-22T12:44:04;94239.89;;;17.68;98.10
43553;BME280;29153;42.696;23.218;2023-05-22T12:46:31;94240.87;;;18.13;96.39
43553;BME280;29153;42.696;23.218;2023-05-22T12:49:00;94242.75;;;18.34;84.56
43553;BME280;29153;42.696;23.218;2023-05-22T12:51:30;94248.23;;;18.58;78.80
43553;BME280;29153;42.696;23.218;2023-05-22T12:53:58;94238.02;;;18.51;85.38
43553;BME280;29153;42.696;23.218;2023-05-22T12:56:25;94243.34;;;18.45;83.13
43553;BME280;29153;42.696;23.218;2023-05-22T12:58:53;94232.57;;;18.54;83.12
43553;BME280;29153;42.696;23.218;2023-05-22T13:01:20;94234.19;;;18.61;91.76
43553;BME280;29153;42.696;23.218;2023-05-22T13:03:51;94231.30;;;18.72;89.83
43553;BME280;29153;42.696;23.218;2023-05-22T13:06:19;94231.64;;;18.77;86.33
43553;BME280;29153;42.696;23.218;2023-05-22T13:08:46;94232.88;;;18.79;89.21